Aviation Digital Data Service (ADDS)

Output produced by METARs form (2010 UTC 20 August 2019)
found at http://www.aviationweather.gov/metar/data/
 
Forecast for: DRRN (NIAMEY (CIV/MIL), NE)
Text: TAF DRRN 201700Z 2018/2124 22008KT 9999 FEW020
Forecast period: 1800 UTC 20 August 2019 to 0000 UTC 22 August 2019
Forecast type: FROM: standard forecast or significant change
Winds: from the SW (220 degrees) at 9 MPH (8 knots; 4.1 m/s)
Visibility: 6 or more miles 10+ km)
Ceiling: at least 12,000 feet AGL
Clouds: few clouds at 2000 feet AGL
Weather: no significant weather forecast for this period
Text: PROB30
Forecast period: 1800 to 2000 UTC 20 August 2019
Forecast type: TEMPORARY: The following changes expected for less than half the time period
Visibility: missing
Ceiling: at least 12,000 feet AGL
Clouds: few clouds at 3000 feet AGL
Weather: TS  (thunderstorm)
Text: TEMPO 2018/2020 TS FEW030CB
Forecast period: 0500 to 1100 UTC 21 August 2019
Forecast type: TEMPORARY: The following changes expected for less than half the time period
Winds: from the E (100 degrees) at 23 MPH (20 knots; 10.3 m/s)
gusting to 40 MPH (35 knots; 18.0 m/s)
Visibility: 0.62 miles (1.00 km)
Ceiling: 1500 feet AGL
Clouds: broken clouds at 1500 feet AGL
scattered clouds at 2300 feet AGL
Weather: SQ BLDU TSRA  (squal, blowing dust, rain associated with thunderstorm(s))